Time;durP1;ratioP1;P1;durP2;ratioP2;P2;SDS_P1;SDS_P2;PMS_P1;PMS_P2;Temp;Humidity;BMP_temperature;BMP_pressure;BME280_temperature;BME280_humidity;BME280_pressure;Samples;Min_cycle;Max_cycle;Signal;HPM_P1;HPM_P2
2023/08/19 00:01:40;;;;;;;94.30;41.63;;;20.80;99.90;;;;;;5053518;28;20084;-70
2023/08/19 00:04:06;;;;;;;91.10;43.65;;;20.90;99.90;;;;;;5032807;28;20055;-70
2023/08/19 00:06:40;;;;;;;82.55;41.28;;;20.90;99.90;;;;;;5025999;28;20215;-70
2023/08/19 00:09:08;;;;;;;95.90;42.08;;;20.90;99.90;;;;;;5029997;28;20321;-70
2023/08/19 00:11:38;;;;;;;79.47;37.70;;;20.90;99.90;;;;;;5040526;28;20025;-70
2023/08/19 00:14:05;;;;;;;59.90;29.73;;;20.90;99.90;;;;;;5021519;28;20437;-75
2023/08/19 00:16:33;;;;;;;53.28;27.25;;;20.90;99.90;;;;;;5029407;28;20289;-76
2023/08/19 00:18:58;;;;;;;50.90;27.85;;;20.80;99.90;;;;;;5035066;28;20647;-74
2023/08/19 00:21:24;;;;;;;49.85;25.40;;;20.80;99.90;;;;;;5037793;28;20127;-74
2023/08/19 00:23:50;;;;;;;48.92;26.15;;;20.80;99.90;;;;;;5019901;28;20168;-74
2023/08/19 00:26:16;;;;;;;47.22;26.50;;;20.70;99.90;;;;;;5016978;28;20026;-74
2023/08/19 00:28:42;;;;;;;47.83;25.95;;;20.70;99.90;;;;;;5027416;28;20270;-74
2023/08/19 00:31:08;;;;;;;44.30;24.60;;;20.70;99.90;;;;;;5052176;28;20558;-74
2023/08/19 00:33:34;;;;;;;43.17;25.55;;;20.70;99.90;;;;;;5052637;28;20496;-73
2023/08/19 00:36:00;;;;;;;43.63;24.02;;;20.70;99.90;;;;;;5047900;28;20086;-72
2023/08/19 00:38:27;;;;;;;44.25;24.90;;;20.60;99.90;;;;;;5044775;28;20493;-72
2023/08/19 00:40:52;;;;;;;37.30;22.35;;;20.60;99.90;;;;;;5019642;28;20037;-71
2023/08/19 00:43:18;;;;;;;39.28;22.85;;;20.60;99.90;;;;;;5037581;28;20397;-71
2023/08/19 00:45:46;;;;;;;39.38;22.08;;;20.50;99.90;;;;;;5023491;28;20028;-71
2023/08/19 00:48:14;;;;;;;36.65;22.88;;;20.50;99.90;;;;;;5057251;28;20528;-71
2023/08/19 00:50:40;;;;;;;33.58;21.80;;;20.60;99.90;;;;;;5038890;28;20267;-71
2023/08/19 00:53:06;;;;;;;34.90;22.65;;;20.50;99.90;;;;;;5046238;28;20029;-71
2023/08/19 00:55:33;;;;;;;39.00;23.02;;;20.50;99.90;;;;;;5036289;28;20681;-71
2023/08/19 00:58:01;;;;;;;37.88;22.73;;;20.50;99.90;;;;;;5031557;28;20030;-71
2023/08/19 01:00:30;;;;;;;38.67;22.08;;;20.40;99.90;;;;;;5046721;28;20395;-70
2023/08/19 01:02:55;;;;;;;32.67;21.42;;;20.50;99.90;;;;;;5041200;28;20118;-70
2023/08/19 01:05:25;;;;;;;39.70;23.10;;;20.40;99.90;;;;;;5048596;28;20195;-70
2023/08/19 01:07:59;;;;;;;41.60;24.30;;;20.40;99.90;;;;;;5023569;28;20090;-70
2023/08/19 01:10:44;;;;;;;38.70;23.38;;;20.40;99.90;;;;;;5031462;28;20024;-71
2023/08/19 01:13:17;;;;;;;35.30;22.73;;;20.30;99.90;;;;;;5035698;28;20175;-70
2023/08/19 01:16:03;;;;;;;33.47;20.33;;;20.30;99.90;;;;;;5033699;28;20056;-71
2023/08/19 01:18:30;;;;;;;30.27;19.08;;;20.20;99.90;;;;;;5019351;28;20128;-70
2023/08/19 01:20:56;;;;;;;29.92;19.35;;;20.10;99.90;;;;;;5025124;28;20366;-70
2023/08/19 01:23:40;;;;;;;32.25;18.83;;;20.00;99.90;;;;;;5025924;28;20033;-70
2023/08/19 01:26:06;;;;;;;26.20;18.13;;;20.00;99.90;;;;;;5025364;28;20069;-70
2023/08/19 01:28:31;;;;;;;30.98;19.13;;;20.00;99.90;;;;;;5028715;28;20079;-71
2023/08/19 01:30:58;;;;;;;29.58;18.55;;;20.10;99.90;;;;;;5035879;28;20044;-70
2023/08/19 01:33:24;;;;;;;26.20;16.17;;;20.00;99.90;;;;;;5024419;28;20025;-70
2023/08/19 01:36:01;;;;;;;23.88;15.10;;;19.90;99.90;;;;;;5041886;28;20496;-70
2023/08/19 01:38:48;;;;;;;25.75;15.65;;;19.90;99.90;;;;;;5051102;28;20483;-71
2023/08/19 01:41:15;;;;;;;18.15;12.93;;;19.90;99.90;;;;;;5043896;28;20139;-70
2023/08/19 01:43:42;;;;;;;19.67;13.30;;;19.80;99.90;;;;;;5028463;28;20021;-71
2023/08/19 01:46:08;;;;;;;19.27;12.82;;;19.80;99.90;;;;;;5023155;28;20041;-71
2023/08/19 01:48:33;;;;;;;20.05;11.98;;;19.70;99.90;;;;;;5031248;28;20030;-70
2023/08/19 01:50:59;;;;;;;19.88;12.07;;;19.70;99.90;;;;;;5036830;28;20052;-70
2023/08/19 01:53:25;;;;;;;20.10;10.43;;;19.80;99.90;;;;;;5049222;28;20125;-71
2023/08/19 01:55:51;;;;;;;14.18;9.23;;;19.80;99.90;;;;;;5050116;28;20083;-71
2023/08/19 01:58:17;;;;;;;13.40;9.95;;;19.70;99.90;;;;;;5029389;28;20129;-71
2023/08/19 02:00:42;;;;;;;16.50;9.98;;;19.70;99.90;;;;;;5031419;28;20196;-70
2023/08/19 02:03:08;;;;;;;15.07;8.88;;;19.60;99.90;;;;;;5054215;28;20120;-70
2023/08/19 02:05:34;;;;;;;14.98;9.43;;;19.60;99.90;;;;;;5049138;28;20033;-70
2023/08/19 02:07:59;;;;;;;12.70;8.82;;;19.60;99.90;;;;;;5032720;28;20030;-70
2023/08/19 02:10:25;;;;;;;12.00;7.97;;;19.60;99.90;;;;;;5033764;28;20279;-71
2023/08/19 02:12:50;;;;;;;14.18;8.23;;;19.50;99.90;;;;;;5028806;28;20338;-71
2023/08/19 02:15:16;;;;;;;12.48;8.52;;;19.50;99.90;;;;;;5029459;28;20540;-70
2023/08/19 02:17:43;;;;;;;12.82;8.50;;;19.40;99.90;;;;;;5042622;28;20024;-70
2023/08/19 02:20:09;;;;;;;13.63;8.32;;;19.40;99.90;;;;;;5026546;28;20086;-70
2023/08/19 02:22:35;;;;;;;12.80;8.27;;;19.50;99.90;;;;;;5052167;28;20120;-71
2023/08/19 02:25:00;;;;;;;12.48;8.65;;;19.40;99.90;;;;;;5030282;28;20511;-71
2023/08/19 02:27:26;;;;;;;14.05;9.18;;;19.50;99.90;;;;;;5017495;28;20048;-71
2023/08/19 02:29:52;;;;;;;13.20;7.45;;;19.50;99.90;;;;;;5018275;28;20342;-70
2023/08/19 02:32:17;;;;;;;14.68;8.35;;;19.40;99.90;;;;;;5035185;28;20081;-70
2023/08/19 02:34:43;;;;;;;11.95;8.43;;;19.40;99.90;;;;;;5033585;28;20088;-71
2023/08/19 02:37:13;;;;;;;12.90;8.30;;;19.30;99.90;;;;;;5045786;28;20114;-70
2023/08/19 02:39:38;;;;;;;12.50;7.88;;;19.30;99.90;;;;;;5035613;28;20116;-70
2023/08/19 02:42:04;;;;;;;10.48;7.35;;;19.30;99.90;;;;;;5036660;28;20112;-71
2023/08/19 02:44:29;;;;;;;12.40;7.60;;;19.30;99.90;;;;;;5026114;28;20029;-70
2023/08/19 02:46:55;;;;;;;10.40;6.15;;;19.20;99.90;;;;;;5034454;28;20198;-71
2023/08/19 02:49:21;;;;;;;12.32;6.65;;;19.20;99.90;;;;;;5017397;28;20040;-71
2023/08/19 02:51:46;;;;;;;8.60;5.40;;;19.10;99.90;;;;;;5022168;28;20052;-70
2023/08/19 02:54:13;;;;;;;10.40;4.70;;;19.10;99.90;;;;;;5043081;28;20475;-71
2023/08/19 02:56:38;;;;;;;10.85;3.45;;;19.10;99.90;;;;;;5023939;28;20488;-71
2023/08/19 02:59:04;;;;;;;7.25;4.32;;;19.10;99.90;;;;;;5018594;28;20068;-70
2023/08/19 03:01:30;;;;;;;10.27;3.67;;;19.10;99.90;;;;;;5023593;28;20041;-71
2023/08/19 03:03:55;;;;;;;7.20;3.70;;;19.00;99.90;;;;;;5034445;28;20039;-70
2023/08/19 03:06:21;;;;;;;7.00;3.63;;;18.90;99.90;;;;;;5039693;28;20033;-71
2023/08/19 03:08:46;;;;;;;8.15;3.20;;;18.80;99.90;;;;;;5033102;28;20064;-71
2023/08/19 03:11:12;;;;;;;6.47;3.10;;;18.80;99.90;;;;;;5020399;28;20029;-71
2023/08/19 03:13:38;;;;;;;9.70;3.35;;;18.80;99.90;;;;;;5029721;28;20124;-71
2023/08/19 03:16:04;;;;;;;8.07;2.97;;;18.70;99.90;;;;;;5018527;28;20371;-71
2023/08/19 03:18:30;;;;;;;8.27;3.25;;;18.70;99.90;;;;;;5042459;28;20082;-71
2023/08/19 03:20:57;;;;;;;7.93;3.30;;;18.70;99.90;;;;;;5018571;28;20041;-71
2023/08/19 03:23:26;;;;;;;5.85;3.40;;;18.60;99.90;;;;;;5017125;28;20029;-71
2023/08/19 03:25:53;;;;;;;14.63;3.00;;;18.40;99.90;;;;;;5019441;28;20032;-70
2023/08/19 03:28:19;;;;;;;8.35;3.03;;;18.30;99.90;;;;;;5036567;28;20031;-71
2023/08/19 03:30:45;;;;;;;8.52;3.22;;;18.20;99.90;;;;;;5028380;28;20038;-71
2023/08/19 03:33:10;;;;;;;9.85;3.42;;;18.10;99.90;;;;;;5027335;28;20096;-71
2023/08/19 03:35:36;;;;;;;10.02;3.40;;;18.00;99.90;;;;;;5016855;28;20072;-71
2023/08/19 03:38:02;;;;;;;11.80;3.15;;;18.00;99.90;;;;;;5017908;28;20218;-71
2023/08/19 03:40:28;;;;;;;13.48;3.30;;;17.90;99.90;;;;;;5028388;28;20156;-71
2023/08/19 03:42:54;;;;;;;8.82;3.05;;;17.80;99.90;;;;;;5032261;28;20120;-71
2023/08/19 03:45:19;;;;;;;9.50;3.30;;;17.80;99.90;;;;;;5057054;28;20593;-71
2023/08/19 03:47:45;;;;;;;10.65;3.22;;;17.70;99.90;;;;;;5035169;28;20187;-71
2023/08/19 03:50:11;;;;;;;15.70;3.88;;;17.60;99.90;;;;;;5035845;28;20154;-71
2023/08/19 03:52:37;;;;;;;16.63;3.40;;;17.60;99.90;;;;;;5034520;28;20174;-71
2023/08/19 03:55:02;;;;;;;9.75;2.90;;;17.60;99.90;;;;;;5044868;28;20104;-71
2023/08/19 03:57:28;;;;;;;10.80;2.75;;;17.60;99.90;;;;;;5027301;28;20088;-71
2023/08/19 03:59:54;;;;;;;10.77;2.80;;;17.50;99.90;;;;;;5043382;28;20067;-71
2023/08/19 04:02:19;;;;;;;13.80;2.78;;;17.50;99.90;;;;;;5027525;28;20124;-71
2023/08/19 04:04:59;;;;;;;18.48;2.63;;;17.40;99.90;;;;;;5035757;28;20033;-71
2023/08/19 04:07:25;;;;;;;16.15;3.40;;;17.40;99.90;;;;;;5025104;28;20073;-71
2023/08/19 04:09:54;;;;;;;13.65;2.72;;;17.40;99.90;;;;;;5043311;28;20619;-71
2023/08/19 04:12:19;;;;;;;17.23;2.65;;;17.40;99.90;;;;;;5038495;28;20420;-71
2023/08/19 04:14:45;;;;;;;14.32;2.80;;;17.50;99.90;;;;;;5037523;28;20041;-71
2023/08/19 04:17:11;;;;;;;11.80;2.97;;;17.60;99.90;;;;;;5026545;28;20318;-71
2023/08/19 04:19:37;;;;;;;12.15;2.67;;;17.60;99.90;;;;;;5032506;28;20037;-71
2023/08/19 04:22:03;;;;;;;14.02;2.47;;;17.60;99.90;;;;;;5023813;28;20021;-71
2023/08/19 04:24:29;;;;;;;19.80;2.80;;;17.50;99.90;;;;;;5042732;28;20374;-71
2023/08/19 04:26:54;;;;;;;23.08;2.67;;;17.50;99.90;;;;;;5031163;28;20463;-71
2023/08/19 04:29:20;;;;;;;10.77;2.17;;;17.50;99.90;;;;;;5042360;28;20033;-71
2023/08/19 04:31:46;;;;;;;14.48;3.25;;;17.40;99.90;;;;;;5051832;28;20376;-71
2023/08/19 04:34:11;;;;;;;18.08;2.55;;;17.30;99.90;;;;;;5030006;28;20087;-71
2023/08/19 04:36:37;;;;;;;18.27;2.65;;;17.20;99.90;;;;;;5049696;28;20111;-71
2023/08/19 04:39:07;;;;;;;12.77;2.50;;;17.20;99.90;;;;;;5023784;28;20067;-71
2023/08/19 04:41:33;;;;;;;12.02;2.00;;;17.30;99.90;;;;;;5021878;28;20552;-71
2023/08/19 04:43:58;;;;;;;19.98;2.88;;;17.30;99.90;;;;;;5043539;28;20119;-71
2023/08/19 04:46:24;;;;;;;20.50;2.78;;;17.30;99.90;;;;;;5049206;28;20048;-71
2023/08/19 04:48:50;;;;;;;14.27;2.42;;;17.30;99.90;;;;;;5020015;28;20034;-72
2023/08/19 04:51:15;;;;;;;24.83;3.08;;;17.20;99.90;;;;;;5029642;28;20044;-71
2023/08/19 04:53:41;;;;;;;15.05;2.50;;;17.20;99.90;;;;;;5056761;28;20094;-71
2023/08/19 04:56:06;;;;;;;16.88;2.92;;;17.20;99.90;;;;;;5020515;28;20552;-71
2023/08/19 04:58:32;;;;;;;20.65;2.97;;;17.20;99.90;;;;;;5031905;28;20120;-71
2023/08/19 05:00:58;;;;;;;20.77;2.63;;;17.10;99.90;;;;;;5027878;28;20035;-71
2023/08/19 05:03:23;;;;;;;18.70;2.55;;;17.00;99.90;;;;;;5022960;28;20032;-71
2023/08/19 05:05:50;;;;;;;18.13;2.63;;;17.00;99.90;;;;;;5022141;28;20385;-71
2023/08/19 05:08:15;;;;;;;20.55;2.58;;;17.00;99.90;;;;;;5038085;28;20059;-71
2023/08/19 05:10:41;;;;;;;16.65;2.58;;;17.00;99.90;;;;;;5039047;28;21379;-71
2023/08/19 05:13:07;;;;;;;25.40;3.08;;;17.00;99.90;;;;;;5016161;28;20021;-71
2023/08/19 05:15:32;;;;;;;28.15;2.92;;;17.00;99.90;;;;;;5028114;28;20040;-71
2023/08/19 05:17:58;;;;;;;20.08;2.65;;;17.00;99.90;;;;;;5031467;28;20117;-71
2023/08/19 05:20:23;;;;;;;25.25;3.58;;;17.10;99.90;;;;;;5022891;28;20037;-71
2023/08/19 05:22:49;;;;;;;16.65;2.78;;;17.10;99.90;;;;;;5033382;28;20057;-71
2023/08/19 05:25:15;;;;;;;24.08;3.00;;;17.10;99.90;;;;;;5029278;28;20107;-70
2023/08/19 05:27:40;;;;;;;20.13;2.63;;;17.20;99.90;;;;;;5027693;28;20029;-72
2023/08/19 05:30:07;;;;;;;26.95;3.30;;;17.20;99.90;;;;;;5052726;28;20228;-71
2023/08/19 05:32:33;;;;;;;22.92;2.80;;;17.20;99.90;;;;;;5042077;28;20341;-71
2023/08/19 05:34:59;;;;;;;27.27;3.47;;;17.20;99.90;;;;;;5035569;28;20155;-71
2023/08/19 05:37:24;;;;;;;22.23;2.70;;;17.10;99.90;;;;;;5037400;28;20193;-72
2023/08/19 05:39:50;;;;;;;19.48;3.15;;;17.20;99.90;;;;;;5034735;28;20063;-71
2023/08/19 05:42:16;;;;;;;21.23;3.00;;;17.20;99.90;;;;;;5022990;28;20029;-71
2023/08/19 05:44:41;;;;;;;18.48;2.60;;;17.40;99.90;;;;;;5022592;28;20385;-71
2023/08/19 05:47:08;;;;;;;21.75;3.10;;;17.50;99.90;;;;;;5055599;28;20043;-71
2023/08/19 05:49:34;;;;;;;19.40;3.05;;;17.50;99.90;;;;;;5040522;28;20029;-72
2023/08/19 05:52:00;;;;;;;24.58;2.88;;;17.60;99.90;;;;;;5038180;28;20510;-71
2023/08/19 05:54:25;;;;;;;24.63;3.63;;;17.80;99.90;;;;;;5025333;28;20033;-71
2023/08/19 05:56:51;;;;;;;21.08;2.97;;;17.90;99.90;;;;;;5031646;28;20033;-71
2023/08/19 05:59:17;;;;;;;22.20;3.08;;;18.10;99.90;;;;;;5030696;28;20093;-71
2023/08/19 06:01:42;;;;;;;18.45;2.92;;;18.30;99.90;;;;;;5037687;28;20115;-71
2023/08/19 06:04:08;;;;;;;21.17;2.80;;;18.60;99.90;;;;;;5036303;28;20151;-72
2023/08/19 06:06:33;;;;;;;17.33;2.65;;;18.70;99.90;;;;;;5014733;28;20032;-72
2023/08/19 06:08:59;;;;;;;19.50;2.83;;;18.80;99.90;;;;;;5036958;28;20040;-71
2023/08/19 06:11:24;;;;;;;27.50;3.75;;;18.80;99.90;;;;;;5037192;28;20913;-71
2023/08/19 06:13:51;;;;;;;25.30;3.30;;;18.90;99.90;;;;;;5056995;28;20136;-71
2023/08/19 06:16:16;;;;;;;19.08;2.50;;;19.00;99.90;;;;;;5044766;28;20029;-71
2023/08/19 06:18:42;;;;;;;18.45;2.55;;;19.20;99.90;;;;;;5040888;28;20032;-71
2023/08/19 06:21:08;;;;;;;21.48;2.95;;;19.30;99.90;;;;;;5038956;28;20248;-71
2023/08/19 06:23:33;;;;;;;16.50;2.78;;;19.20;99.90;;;;;;5030306;28;20487;-71
2023/08/19 06:25:59;;;;;;;19.88;2.70;;;19.30;99.90;;;;;;5031372;28;20117;-71
2023/08/19 06:28:24;;;;;;;12.10;2.20;;;19.60;99.90;;;;;;5025884;28;20399;-71
2023/08/19 06:30:51;;;;;;;18.52;2.92;;;19.80;99.90;;;;;;5026590;28;20037;-71
2023/08/19 06:33:17;;;;;;;18.40;2.67;;;20.00;99.90;;;;;;5018754;28;20021;-71
2023/08/19 06:35:51;;;;;;;21.50;3.05;;;20.10;99.90;;;;;;5031332;28;20049;-71
2023/08/19 06:38:26;;;;;;;19.73;2.90;;;20.40;99.90;;;;;;5030848;28;20079;-71
2023/08/19 06:40:57;;;;;;;21.77;3.20;;;20.50;99.90;;;;;;5030248;28;20087;-70
2023/08/19 06:43:26;;;;;;;17.35;2.95;;;20.50;99.90;;;;;;5030882;28;20496;-71
2023/08/19 06:45:54;;;;;;;20.58;2.50;;;20.40;99.90;;;;;;5031833;28;20111;-71
2023/08/19 06:48:22;;;;;;;20.00;3.13;;;20.50;99.90;;;;;;5021347;28;20048;-71
2023/08/19 06:50:48;;;;;;;14.20;2.33;;;20.40;99.90;;;;;;5020141;28;20056;-71
2023/08/19 06:53:14;;;;;;;20.27;2.83;;;20.30;99.90;;;;;;5016708;28;20040;-71
2023/08/19 06:55:42;;;;;;;17.73;2.88;;;20.70;99.90;;;;;;5022324;28;20385;-72
2023/08/19 06:58:16;;;;;;;20.10;3.35;;;20.90;99.90;;;;;;5024350;28;20036;-72
2023/08/19 07:00:43;;;;;;;18.23;2.60;;;20.90;99.90;;;;;;5010457;28;20045;-71
2023/08/19 07:03:10;;;;;;;13.23;2.50;;;20.60;99.90;;;;;;5007626;28;20691;-71
2023/08/19 07:05:36;;;;;;;16.58;2.28;;;20.60;99.90;;;;;;5010637;28;20065;-71
2023/08/19 07:08:06;;;;;;;22.38;2.90;;;20.50;99.90;;;;;;5016513;28;20124;-71
2023/08/19 07:10:32;;;;;;;16.40;2.10;;;20.30;99.90;;;;;;5020488;28;21285;-71
2023/08/19 07:12:58;;;;;;;17.17;3.22;;;20.30;99.90;;;;;;5022806;28;20037;-71
2023/08/19 07:15:24;;;;;;;16.77;2.67;;;20.20;99.90;;;;;;5032768;28;20032;-71
2023/08/19 07:17:53;;;;;;;18.58;2.33;;;20.30;99.90;;;;;;5025781;28;20037;-71
2023/08/19 07:20:22;;;;;;;16.35;3.22;;;20.40;99.90;;;;;;5033913;28;20044;-71
2023/08/19 07:22:49;;;;;;;14.32;2.15;;;20.20;99.90;;;;;;5035471;28;20029;-71
2023/08/19 07:25:15;;;;;;;15.43;2.00;;;20.40;99.90;;;;;;5034918;28;20111;-72
2023/08/19 07:27:44;;;;;;;20.05;2.15;;;20.50;99.90;;;;;;5033059;28;20033;-71
2023/08/19 07:30:11;;;;;;;15.75;2.65;;;20.50;99.90;;;;;;5040183;28;20571;-71
2023/08/19 07:32:38;;;;;;;17.23;2.20;;;20.90;99.90;;;;;;5028356;28;20032;-71
2023/08/19 07:35:04;;;;;;;18.27;2.67;;;20.80;99.90;;;;;;5032167;28;20496;-71
2023/08/19 07:37:30;;;;;;;15.35;2.58;;;20.90;99.90;;;;;;5024772;28;20037;-72
2023/08/19 07:39:57;;;;;;;17.48;2.50;;;20.80;99.90;;;;;;5032392;28;20496;-71
2023/08/19 07:42:23;;;;;;;22.10;2.63;;;20.80;99.90;;;;;;5026616;28;20025;-72
2023/08/19 07:44:48;;;;;;;19.98;2.55;;;21.00;99.90;;;;;;4689984;28;10000436;-71
2023/08/19 07:47:14;;;;;;;19.15;2.92;;;21.30;99.90;;;;;;5032730;28;20095;-71
2023/08/19 07:49:39;;;;;;;13.57;2.78;;;21.60;99.90;;;;;;5043811;28;20143;-71
2023/08/19 07:52:05;;;;;;;15.57;1.90;;;21.90;99.90;;;;;;5027573;28;20570;-71
2023/08/19 07:54:31;;;;;;;16.45;2.58;;;22.60;99.90;;;;;;5025231;28;20779;-72
2023/08/19 07:56:58;;;;;;;14.25;2.45;;;24.10;99.90;;;;;;5028966;28;20416;-71
2023/08/19 07:59:25;;;;;;;17.30;2.40;;;24.70;99.90;;;;;;5030865;28;20559;-72
2023/08/19 08:01:51;;;;;;;16.13;2.60;;;25.10;99.90;;;;;;5025205;28;20472;-73
2023/08/19 08:04:17;;;;;;;11.70;2.15;;;24.80;99.90;;;;;;5031154;28;20029;-71
2023/08/19 08:06:45;;;;;;;13.80;2.13;;;25.60;99.90;;;;;;5027658;28;20032;-71
2023/08/19 08:09:10;;;;;;;8.80;1.80;;;27.30;99.90;;;;;;5038875;28;20398;-80
2023/08/19 08:11:36;;;;;;;10.05;1.98;;;29.40;99.90;;;;;;5039190;28;20055;-73
2023/08/19 08:14:02;;;;;;;8.15;2.33;;;31.40;96.70;;;;;;5043744;28;20025;-78
2023/08/19 08:16:28;;;;;;;9.43;1.80;;;32.00;93.60;;;;;;5032665;28;20033;-76
2023/08/19 08:18:53;;;;;;;9.57;1.70;;;32.70;90.20;;;;;;5053643;28;20039;-79
2023/08/19 08:21:20;;;;;;;9.55;1.88;;;32.60;81.70;;;;;;5038456;28;20488;-81
2023/08/19 08:23:46;;;;;;;8.50;1.77;;;31.50;82.90;;;;;;5033987;28;20029;-80
2023/08/19 08:26:13;;;;;;;8.85;1.67;;;30.80;86.90;;;;;;5029104;28;20035;-79
2023/08/19 08:28:38;;;;;;;10.52;2.20;;;29.60;91.80;;;;;;5033032;28;20029;-73
2023/08/19 08:31:04;;;;;;;11.32;2.25;;;28.10;94.60;;;;;;5033243;28;20037;-77
2023/08/19 08:33:29;;;;;;;10.88;2.28;;;26.70;99.90;;;;;;5026963;28;20029;-73
2023/08/19 08:35:55;;;;;;;12.45;1.98;;;25.90;99.90;;;;;;5027993;28;20106;-73
2023/08/19 08:38:21;;;;;;;9.93;1.90;;;25.80;99.90;;;;;;5035176;28;20589;-72
2023/08/19 08:40:46;;;;;;;9.48;1.90;;;26.20;99.90;;;;;;5028237;28;20112;-74
2023/08/19 08:43:13;;;;;;;11.98;2.50;;;26.60;99.90;;;;;;5032953;28;20056;-74
2023/08/19 08:45:41;;;;;;;11.20;1.65;;;26.70;99.90;;;;;;5036544;28;20059;-87
2023/08/19 08:48:07;;;;;;;9.05;1.80;;;26.40;99.90;;;;;;5036476;28;20061;-82
2023/08/19 08:50:34;;;;;;;11.70;2.22;;;27.50;99.90;;;;;;5026086;28;20327;-83
2023/08/19 08:52:59;;;;;;;10.82;1.75;;;27.30;99.90;;;;;;5027106;28;20025;-74
2023/08/19 08:55:26;;;;;;;11.40;2.17;;;27.90;99.90;;;;;;5034068;28;20043;-79
2023/08/19 08:57:51;;;;;;;12.57;2.60;;;28.70;99.90;;;;;;5040165;28;20036;-73
2023/08/19 09:00:17;;;;;;;8.77;1.90;;;28.40;99.30;;;;;;5031611;28;20028;-71
2023/08/19 09:02:45;;;;;;;12.35;2.42;;;27.60;99.90;;;;;;5020802;28;20124;-71
2023/08/19 09:05:12;;;;;;;14.88;2.25;;;26.70;99.90;;;;;;5021898;28;20025;-71
2023/08/19 09:07:40;;;;;;;14.50;2.38;;;25.50;99.90;;;;;;5026794;28;20021;-71
2023/08/19 09:10:15;;;;;;;10.32;1.90;;;24.70;99.90;;;;;;5019292;28;20556;-70
2023/08/19 09:12:56;;;;;;;11.77;2.15;;;24.40;99.90;;;;;;5020279;28;20097;-70
2023/08/19 09:15:23;;;;;;;12.50;1.80;;;24.40;99.90;;;;;;5033966;28;20182;-71
2023/08/19 09:17:50;;;;;;;12.35;1.85;;;24.30;99.90;;;;;;5027972;28;20065;-70
2023/08/19 09:20:17;;;;;;;11.57;1.70;;;24.50;99.90;;;;;;5027130;28;20123;-70
2023/08/19 09:22:44;;;;;;;9.23;1.40;;;26.10;99.90;;;;;;5042693;28;20036;-70
2023/08/19 09:25:16;;;;;;;8.07;1.50;;;27.20;99.90;;;;;;5042201;28;20461;-70
2023/08/19 09:27:41;;;;;;;10.57;2.10;;;27.40;99.90;;;;;;5026307;28;20551;-70
2023/08/19 09:30:07;;;;;;;6.18;1.13;;;27.70;99.90;;;;;;5027400;28;20044;-71
2023/08/19 09:32:35;;;;;;;8.05;1.80;;;29.70;96.80;;;;;;5031684;28;20016;-71
2023/08/19 09:35:01;;;;;;;7.20;1.77;;;32.50;94.60;;;;;;5024281;28;20048;-71
2023/08/19 09:37:27;;;;;;;7.05;1.90;;;33.90;81.00;;;;;;5021231;28;20105;-71
2023/08/19 09:39:53;;;;;;;8.07;1.38;;;33.10;77.80;;;;;;5022668;28;20025;-70
2023/08/19 09:42:20;;;;;;;10.98;2.10;;;31.10;80.10;;;;;;5030762;28;20025;-70
2023/08/19 09:44:46;;;;;;;8.65;1.98;;;29.90;87.30;;;;;;5018467;28;20034;-70
2023/08/19 09:47:12;;;;;;;10.00;2.30;;;29.10;97.00;;;;;;5037003;28;20107;-70
2023/08/19 09:49:37;;;;;;;9.98;1.50;;;31.10;96.20;;;;;;5030581;28;20392;-70
2023/08/19 09:52:03;;;;;;;7.88;1.60;;;31.40;87.70;;;;;;5037376;28;20045;-70
2023/08/19 09:54:29;;;;;;;8.25;1.88;;;31.20;87.30;;;;;;5035638;28;20561;-70
2023/08/19 09:56:56;;;;;;;9.52;1.83;;;30.50;86.70;;;;;;5026608;28;20394;-70
2023/08/19 09:59:26;;;;;;;12.15;1.70;;;30.70;91.30;;;;;;5035159;28;20043;-70
2023/08/19 10:01:53;;;;;;;14.90;2.22;;;30.10;87.80;;;;;;5011592;28;20576;-70
2023/08/19 10:04:21;;;;;;;12.15;1.90;;;28.80;90.80;;;;;;4665689;28;9999870;-70
2023/08/19 10:06:51;;;;;;;10.57;1.88;;;28.60;92.70;;;;;;5017200;28;20110;-71
2023/08/19 10:09:22;;;;;;;9.10;1.80;;;30.80;90.80;;;;;;5025085;28;20025;-73
2023/08/19 10:11:51;;;;;;;11.25;2.10;;;32.60;81.40;;;;;;5021925;28;20314;-71
2023/08/19 10:14:22;;;;;;;9.73;2.08;;;33.30;77.30;;;;;;5023782;28;20112;-72
2023/08/19 10:16:50;;;;;;;8.93;1.88;;;33.10;76.60;;;;;;5020037;28;20044;-71
2023/08/19 10:19:20;;;;;;;8.38;1.58;;;32.70;74.10;;;;;;5021891;28;20073;-71
2023/08/19 10:21:49;;;;;;;12.00;1.98;;;34.80;78.10;;;;;;5020911;28;20037;-71
2023/08/19 10:24:21;;;;;;;8.15;1.40;;;37.70;66.10;;;;;;5030003;28;20037;-71
2023/08/19 10:26:50;;;;;;;8.10;1.85;;;39.30;57.60;;;;;;5036789;28;20029;-71
2023/08/19 10:29:16;;;;;;;8.27;1.70;;;38.20;53.70;;;;;;5036999;28;20021;-71
2023/08/19 10:31:45;;;;;;;10.60;2.08;;;37.10;54.40;;;;;;5039898;28;20043;-71
2023/08/19 10:34:11;;;;;;;8.13;1.50;;;37.80;55.40;;;;;;5024314;28;20699;-71
2023/08/19 10:36:37;;;;;;;5.93;1.40;;;37.70;53.20;;;;;;5025238;28;20106;-71
2023/08/19 10:39:07;;;;;;;7.10;1.60;;;36.90;53.30;;;;;;5024248;28;20025;-71
2023/08/19 10:41:35;;;;;;;7.78;1.60;;;35.50;53.10;;;;;;5022312;28;20059;-71
2023/08/19 10:44:02;;;;;;;6.65;1.45;;;34.20;57.60;;;;;;5032079;28;20098;-71
2023/08/19 10:46:34;;;;;;;8.88;1.92;;;34.30;58.40;;;;;;5029803;28;20433;-71
2023/08/19 10:49:02;;;;;;;9.02;1.80;;;35.10;57.70;;;;;;5021618;28;20022;-71
2023/08/19 10:51:50;;;;;;;5.95;1.30;;;35.80;56.00;;;;;;5027082;28;20041;-71
2023/08/19 10:54:27;;;;;;;10.10;2.00;;;38.10;55.60;;;;;;5035146;28;20083;-71
2023/08/19 10:57:07;;;;;;;6.72;1.45;;;38.60;50.90;;;;;;5033962;28;20503;-71
2023/08/19 10:59:33;;;;;;;7.10;1.77;;;38.10;50.90;;;;;;5026084;28;20025;-71
2023/08/19 11:01:59;;;;;;;7.35;1.80;;;37.70;52.30;;;;;;5039959;28;20345;-71
2023/08/19 11:04:25;;;;;;;8.15;1.58;;;38.50;48.30;;;;;;5037986;28;20036;-71
2023/08/19 11:06:52;;;;;;;7.57;1.92;;;36.20;50.10;;;;;;5035949;28;20057;-71
2023/08/19 11:09:18;;;;;;;6.20;1.27;;;33.60;50.90;;;;;;5045569;28;20547;-71
2023/08/19 11:11:44;;;;;;;9.68;1.77;;;31.80;57.30;;;;;;5031696;28;20045;-71
2023/08/19 11:14:17;;;;;;;7.53;1.45;;;31.80;60.00;;;;;;5038732;28;20105;-71
2023/08/19 11:16:50;;;;;;;9.95;1.50;;;33.80;61.40;;;;;;5034256;28;20037;-72
2023/08/19 11:19:17;;;;;;;6.60;1.30;;;35.00;51.40;;;;;;5029056;28;20032;-71
2023/08/19 11:21:43;;;;;;;9.02;1.60;;;35.70;51.60;;;;;;5038751;28;20900;-73
2023/08/19 11:24:10;;;;;;;7.18;1.40;;;35.90;51.40;;;;;;5031815;28;20043;-70
2023/08/19 11:26:36;;;;;;;8.75;1.58;;;36.00;54.40;;;;;;5030913;28;20029;-72
2023/08/19 11:29:06;;;;;;;9.18;1.85;;;35.90;52.60;;;;;;5031687;28;20345;-71
2023/08/19 11:31:33;;;;;;;9.30;1.67;;;35.60;52.90;;;;;;5033139;28;20029;-71
2023/08/19 11:33:59;;;;;;;12.30;2.17;;;33.80;54.80;;;;;;5030616;28;20018;-72
2023/08/19 11:36:27;;;;;;;8.90;1.77;;;32.90;59.40;;;;;;4675466;28;10000092;-72
2023/08/19 11:38:56;;;;;;;9.13;1.77;;;31.40;58.90;;;;;;5032282;28;20021;-72
2023/08/19 11:41:23;;;;;;;10.23;2.17;;;30.10;65.90;;;;;;5027377;28;20020;-71
2023/08/19 11:43:50;;;;;;;9.32;1.85;;;28.40;67.00;;;;;;5025011;28;20512;-71
2023/08/19 11:46:16;;;;;;;10.18;1.58;;;28.20;72.90;;;;;;5022459;28;20079;-71
2023/08/19 11:48:43;;;;;;;12.57;2.10;;;27.90;78.60;;;;;;5027856;28;20432;-71
2023/08/19 11:51:12;;;;;;;10.00;2.00;;;28.40;86.30;;;;;;5016279;28;20254;-71
2023/08/19 11:53:39;;;;;;;11.25;2.00;;;27.70;81.80;;;;;;5032982;28;20021;-71
2023/08/19 11:56:05;;;;;;;9.38;1.90;;;27.30;90.40;;;;;;5027263;28;20191;-71
2023/08/19 11:58:50;;;;;;;14.02;2.03;;;26.90;92.00;;;;;;5029313;28;20187;-71
2023/08/19 12:01:23;;;;;;;9.10;1.65;;;27.80;96.10;;;;;;5023947;28;20053;-71
2023/08/19 12:03:50;;;;;;;14.02;1.65;;;27.80;88.20;;;;;;5025775;28;20117;-71
2023/08/19 12:06:16;;;;;;;11.10;1.80;;;28.60;92.90;;;;;;5033155;28;20040;-71
2023/08/19 12:08:44;;;;;;;11.15;1.88;;;28.90;89.50;;;;;;5026560;28;20048;-72
2023/08/19 12:11:12;;;;;;;7.35;1.33;;;29.10;87.50;;;;;;5021883;28;20193;-71
2023/08/19 12:13:38;;;;;;;11.20;1.88;;;28.90;83.50;;;;;;5021053;28;20120;-71
2023/08/19 12:16:05;;;;;;;11.60;2.03;;;29.70;92.30;;;;;;5022585;28;20037;-71
2023/08/19 12:18:32;;;;;;;9.32;1.63;;;28.80;87.80;;;;;;5024997;28;20448;-71
2023/08/19 12:20:59;;;;;;;9.60;1.38;;;28.50;90.40;;;;;;5016549;28;20064;-71
2023/08/19 12:23:25;;;;;;;7.97;1.67;;;28.50;91.70;;;;;;5017710;28;20040;-72
2023/08/19 12:25:53;;;;;;;14.65;2.15;;;28.00;90.90;;;;;;5021653;28;20026;-71
2023/08/19 12:28:19;;;;;;;7.32;1.58;;;28.20;93.00;;;;;;5030329;28;20051;-71
2023/08/19 12:30:45;;;;;;;12.15;1.70;;;28.30;91.20;;;;;;5023537;28;20742;-71
2023/08/19 12:33:13;;;;;;;12.13;1.63;;;28.10;91.40;;;;;;5029641;28;20089;-71
2023/08/19 12:35:41;;;;;;;9.10;1.65;;;27.80;96.90;;;;;;5026320;28;20036;-71
2023/08/19 12:38:07;;;;;;;9.55;1.73;;;27.50;92.80;;;;;;5019342;28;20033;-71